sensor_id;sensor_type;location;lat;lon;timestamp;P1;durP1;ratioP1;P2;durP2;ratioP2
65463;SDS011;52063;45.110;9.870;2022-10-16T00:00:34;35.03;;;16.73;;
65463;SDS011;52063;45.110;9.870;2022-10-16T00:03:00;32.88;;;15.48;;
65463;SDS011;52063;45.110;9.870;2022-10-16T00:05:26;29.57;;;15.87;;
65463;SDS011;52063;45.110;9.870;2022-10-16T00:07:51;28.00;;;15.23;;
65463;SDS011;52063;45.110;9.870;2022-10-16T00:10:16;31.53;;;16.13;;
65463;SDS011;52063;45.110;9.870;2022-10-16T00:12:41;29.25;;;14.95;;
65463;SDS011;52063;45.110;9.870;2022-10-16T00:15:07;29.20;;;15.53;;
65463;SDS011;52063;45.110;9.870;2022-10-16T00:17:32;27.53;;;15.33;;
65463;SDS011;52063;45.110;9.870;2022-10-16T00:19:58;29.40;;;16.00;;
65463;SDS011;52063;45.110;9.870;2022-10-16T00:22:23;29.57;;;14.90;;
65463;SDS011;52063;45.110;9.870;2022-10-16T00:24:49;28.47;;;15.17;;
65463;SDS011;52063;45.110;9.870;2022-10-16T00:27:14;28.63;;;14.77;;
65463;SDS011;52063;45.110;9.870;2022-10-16T00:29:39;30.27;;;14.68;;
65463;SDS011;52063;45.110;9.870;2022-10-16T00:32:05;28.20;;;14.60;;
65463;SDS011;52063;45.110;9.870;2022-10-16T00:34:30;26.60;;;13.77;;
65463;SDS011;52063;45.110;9.870;2022-10-16T00:36:55;26.27;;;13.40;;
65463;SDS011;52063;45.110;9.870;2022-10-16T00:39:21;24.17;;;13.87;;
65463;SDS011;52063;45.110;9.870;2022-10-16T00:41:47;29.88;;;14.40;;
65463;SDS011;52063;45.110;9.870;2022-10-16T00:46:56;28.42;;;15.20;;
65463;SDS011;52063;45.110;9.870;2022-10-16T00:49:22;26.93;;;14.10;;
65463;SDS011;52063;45.110;9.870;2022-10-16T00:51:48;28.13;;;14.73;;
65463;SDS011;52063;45.110;9.870;2022-10-16T00:54:15;26.10;;;14.23;;
65463;SDS011;52063;45.110;9.870;2022-10-16T00:56:41;28.63;;;14.98;;
65463;SDS011;52063;45.110;9.870;2022-10-16T00:59:09;26.73;;;14.02;;
65463;SDS011;52063;45.110;9.870;2022-10-16T01:01:36;28.17;;;14.38;;
65463;SDS011;52063;45.110;9.870;2022-10-16T01:04:02;27.83;;;14.37;;
65463;SDS011;52063;45.110;9.870;2022-10-16T01:14:18;23.25;;;13.13;;
65463;SDS011;52063;45.110;9.870;2022-10-16T01:21:54;23.98;;;13.18;;
65463;SDS011;52063;45.110;9.870;2022-10-16T01:24:38;22.83;;;13.55;;
65463;SDS011;52063;45.110;9.870;2022-10-16T01:30:12;22.47;;;12.67;;
65463;SDS011;52063;45.110;9.870;2022-10-16T01:37:51;23.17;;;13.23;;
65463;SDS011;52063;45.110;9.870;2022-10-16T01:40:18;21.55;;;12.57;;
65463;SDS011;52063;45.110;9.870;2022-10-16T01:42:46;22.25;;;12.50;;
65463;SDS011;52063;45.110;9.870;2022-10-16T01:45:13;23.08;;;13.23;;
65463;SDS011;52063;45.110;9.870;2022-10-16T01:47:39;21.47;;;13.03;;
65463;SDS011;52063;45.110;9.870;2022-10-16T01:50:06;23.23;;;14.00;;
65463;SDS011;52063;45.110;9.870;2022-10-16T01:52:34;23.35;;;12.30;;
65463;SDS011;52063;45.110;9.870;2022-10-16T01:55:02;23.40;;;12.90;;
65463;SDS011;52063;45.110;9.870;2022-10-16T01:57:29;22.58;;;12.27;;
65463;SDS011;52063;45.110;9.870;2022-10-16T01:59:56;21.60;;;12.87;;
65463;SDS011;52063;45.110;9.870;2022-10-16T02:02:25;20.63;;;12.63;;
65463;SDS011;52063;45.110;9.870;2022-10-16T02:04:53;18.98;;;11.40;;
65463;SDS011;52063;45.110;9.870;2022-10-16T02:07:19;21.05;;;12.60;;
65463;SDS011;52063;45.110;9.870;2022-10-16T02:09:45;19.70;;;12.03;;
65463;SDS011;52063;45.110;9.870;2022-10-16T02:12:32;23.00;;;12.37;;
65463;SDS011;52063;45.110;9.870;2022-10-16T02:14:56;19.10;;;11.55;;
65463;SDS011;52063;45.110;9.870;2022-10-16T02:17:21;21.05;;;12.85;;
65463;SDS011;52063;45.110;9.870;2022-10-16T02:19:47;19.67;;;12.20;;
65463;SDS011;52063;45.110;9.870;2022-10-16T02:22:22;22.13;;;11.40;;
65463;SDS011;52063;45.110;9.870;2022-10-16T02:24:51;19.63;;;12.10;;
65463;SDS011;52063;45.110;9.870;2022-10-16T02:29:46;21.73;;;12.57;;
65463;SDS011;52063;45.110;9.870;2022-10-16T02:32:15;21.30;;;11.90;;
65463;SDS011;52063;45.110;9.870;2022-10-16T02:34:41;19.70;;;12.18;;
65463;SDS011;52063;45.110;9.870;2022-10-16T02:37:07;20.17;;;12.02;;
65463;SDS011;52063;45.110;9.870;2022-10-16T02:39:33;20.07;;;12.00;;
65463;SDS011;52063;45.110;9.870;2022-10-16T02:41:58;19.27;;;11.75;;
65463;SDS011;52063;45.110;9.870;2022-10-16T02:44:24;19.83;;;11.70;;
65463;SDS011;52063;45.110;9.870;2022-10-16T02:46:49;19.97;;;11.70;;
65463;SDS011;52063;45.110;9.870;2022-10-16T02:49:14;18.87;;;11.53;;
65463;SDS011;52063;45.110;9.870;2022-10-16T02:51:40;21.05;;;12.20;;
65463;SDS011;52063;45.110;9.870;2022-10-16T02:54:05;18.43;;;11.40;;
65463;SDS011;52063;45.110;9.870;2022-10-16T02:56:31;19.40;;;12.50;;
65463;SDS011;52063;45.110;9.870;2022-10-16T02:58:56;22.03;;;11.80;;
65463;SDS011;52063;45.110;9.870;2022-10-16T03:01:22;20.15;;;11.75;;
65463;SDS011;52063;45.110;9.870;2022-10-16T03:03:47;19.00;;;11.40;;
65463;SDS011;52063;45.110;9.870;2022-10-16T03:06:13;19.77;;;11.97;;
65463;SDS011;52063;45.110;9.870;2022-10-16T03:08:39;17.48;;;11.10;;
65463;SDS011;52063;45.110;9.870;2022-10-16T03:11:05;17.35;;;10.38;;
65463;SDS011;52063;45.110;9.870;2022-10-16T03:13:31;16.75;;;11.20;;
65463;SDS011;52063;45.110;9.870;2022-10-16T03:15:56;19.00;;;11.63;;
65463;SDS011;52063;45.110;9.870;2022-10-16T03:18:21;17.83;;;11.23;;
65463;SDS011;52063;45.110;9.870;2022-10-16T03:20:46;19.23;;;11.10;;
65463;SDS011;52063;45.110;9.870;2022-10-16T03:23:13;16.77;;;10.83;;
65463;SDS011;52063;45.110;9.870;2022-10-16T03:25:38;17.55;;;11.25;;
65463;SDS011;52063;45.110;9.870;2022-10-16T03:28:04;16.77;;;10.73;;
65463;SDS011;52063;45.110;9.870;2022-10-16T03:30:29;18.30;;;11.23;;
65463;SDS011;52063;45.110;9.870;2022-10-16T03:32:55;17.47;;;10.97;;
65463;SDS011;52063;45.110;9.870;2022-10-16T03:35:21;18.98;;;12.13;;
65463;SDS011;52063;45.110;9.870;2022-10-16T03:37:46;16.70;;;10.63;;
65463;SDS011;52063;45.110;9.870;2022-10-16T03:40:13;17.93;;;10.80;;
65463;SDS011;52063;45.110;9.870;2022-10-16T03:42:38;17.10;;;10.55;;
65463;SDS011;52063;45.110;9.870;2022-10-16T03:45:04;17.20;;;10.63;;
65463;SDS011;52063;45.110;9.870;2022-10-16T03:47:29;15.80;;;11.27;;
65463;SDS011;52063;45.110;9.870;2022-10-16T03:49:58;16.05;;;10.32;;
65463;SDS011;52063;45.110;9.870;2022-10-16T03:52:23;15.90;;;10.20;;
65463;SDS011;52063;45.110;9.870;2022-10-16T03:54:48;16.97;;;10.27;;
65463;SDS011;52063;45.110;9.870;2022-10-16T03:57:13;22.30;;;11.13;;
65463;SDS011;52063;45.110;9.870;2022-10-16T03:59:39;14.23;;;10.27;;
65463;SDS011;52063;45.110;9.870;2022-10-16T04:02:04;16.10;;;10.90;;
65463;SDS011;52063;45.110;9.870;2022-10-16T04:04:29;17.83;;;10.83;;
65463;SDS011;52063;45.110;9.870;2022-10-16T04:06:55;15.20;;;10.33;;
65463;SDS011;52063;45.110;9.870;2022-10-16T04:09:20;19.53;;;10.60;;
65463;SDS011;52063;45.110;9.870;2022-10-16T04:11:45;14.37;;;10.27;;
65463;SDS011;52063;45.110;9.870;2022-10-16T04:14:11;17.73;;;10.80;;
65463;SDS011;52063;45.110;9.870;2022-10-16T04:16:36;15.88;;;10.43;;
65463;SDS011;52063;45.110;9.870;2022-10-16T04:19:01;17.20;;;10.47;;
65463;SDS011;52063;45.110;9.870;2022-10-16T04:21:27;16.13;;;9.90;;
65463;SDS011;52063;45.110;9.870;2022-10-16T04:23:52;17.60;;;10.57;;
65463;SDS011;52063;45.110;9.870;2022-10-16T04:26:17;16.80;;;10.67;;
65463;SDS011;52063;45.110;9.870;2022-10-16T04:28:43;14.30;;;9.97;;
65463;SDS011;52063;45.110;9.870;2022-10-16T04:31:08;13.95;;;9.25;;
65463;SDS011;52063;45.110;9.870;2022-10-16T04:33:33;15.40;;;9.37;;
65463;SDS011;52063;45.110;9.870;2022-10-16T04:35:59;16.93;;;10.17;;
65463;SDS011;52063;45.110;9.870;2022-10-16T04:38:25;13.63;;;9.68;;
65463;SDS011;52063;45.110;9.870;2022-10-16T04:40:50;14.30;;;9.40;;
65463;SDS011;52063;45.110;9.870;2022-10-16T04:43:16;15.57;;;9.45;;
65463;SDS011;52063;45.110;9.870;2022-10-16T04:45:41;14.97;;;9.40;;
65463;SDS011;52063;45.110;9.870;2022-10-16T04:48:07;15.70;;;9.77;;
65463;SDS011;52063;45.110;9.870;2022-10-16T04:50:32;14.50;;;9.00;;
65463;SDS011;52063;45.110;9.870;2022-10-16T04:53:04;16.70;;;9.52;;
65463;SDS011;52063;45.110;9.870;2022-10-16T04:55:29;12.57;;;9.30;;
65463;SDS011;52063;45.110;9.870;2022-10-16T04:57:54;13.73;;;9.43;;
65463;SDS011;52063;45.110;9.870;2022-10-16T05:00:20;15.30;;;8.97;;
65463;SDS011;52063;45.110;9.870;2022-10-16T05:02:45;14.07;;;9.83;;
65463;SDS011;52063;45.110;9.870;2022-10-16T05:05:10;14.43;;;9.10;;
65463;SDS011;52063;45.110;9.870;2022-10-16T05:07:36;13.52;;;8.93;;
65463;SDS011;52063;45.110;9.870;2022-10-16T05:10:02;15.37;;;9.67;;
65463;SDS011;52063;45.110;9.870;2022-10-16T05:12:27;13.67;;;9.37;;
65463;SDS011;52063;45.110;9.870;2022-10-16T05:14:52;15.67;;;9.70;;
65463;SDS011;52063;45.110;9.870;2022-10-16T05:17:18;13.80;;;8.70;;
65463;SDS011;52063;45.110;9.870;2022-10-16T05:19:43;14.52;;;9.75;;
65463;SDS011;52063;45.110;9.870;2022-10-16T05:22:08;13.97;;;9.10;;
65463;SDS011;52063;45.110;9.870;2022-10-16T05:24:34;14.90;;;9.03;;
65463;SDS011;52063;45.110;9.870;2022-10-16T05:26:59;13.93;;;9.33;;
65463;SDS011;52063;45.110;9.870;2022-10-16T05:29:25;16.40;;;9.43;;
65463;SDS011;52063;45.110;9.870;2022-10-16T05:31:51;14.70;;;9.27;;
65463;SDS011;52063;45.110;9.870;2022-10-16T05:34:16;12.52;;;8.73;;
65463;SDS011;52063;45.110;9.870;2022-10-16T05:36:42;14.33;;;9.43;;
65463;SDS011;52063;45.110;9.870;2022-10-16T05:39:07;17.50;;;9.70;;
65463;SDS011;52063;45.110;9.870;2022-10-16T05:41:32;12.10;;;8.80;;
65463;SDS011;52063;45.110;9.870;2022-10-16T05:43:58;14.10;;;8.83;;
65463;SDS011;52063;45.110;9.870;2022-10-16T05:46:23;13.70;;;9.40;;
65463;SDS011;52063;45.110;9.870;2022-10-16T05:48:51;14.03;;;9.00;;
65463;SDS011;52063;45.110;9.870;2022-10-16T05:51:16;12.83;;;8.60;;
65463;SDS011;52063;45.110;9.870;2022-10-16T05:53:42;12.73;;;8.52;;
65463;SDS011;52063;45.110;9.870;2022-10-16T05:56:09;13.87;;;9.27;;
65463;SDS011;52063;45.110;9.870;2022-10-16T05:58:35;14.77;;;9.65;;
65463;SDS011;52063;45.110;9.870;2022-10-16T06:01:03;13.05;;;8.80;;
65463;SDS011;52063;45.110;9.870;2022-10-16T06:03:28;15.18;;;9.25;;
65463;SDS011;52063;45.110;9.870;2022-10-16T06:05:54;14.63;;;9.70;;
65463;SDS011;52063;45.110;9.870;2022-10-16T06:08:20;15.93;;;8.90;;
65463;SDS011;52063;45.110;9.870;2022-10-16T06:10:47;13.18;;;9.35;;
65463;SDS011;52063;45.110;9.870;2022-10-16T06:13:13;12.43;;;8.75;;
65463;SDS011;52063;45.110;9.870;2022-10-16T06:15:39;13.15;;;9.27;;
65463;SDS011;52063;45.110;9.870;2022-10-16T06:18:06;14.17;;;9.73;;
65463;SDS011;52063;45.110;9.870;2022-10-16T06:20:32;13.73;;;9.10;;
65463;SDS011;52063;45.110;9.870;2022-10-16T06:22:57;13.27;;;9.17;;
65463;SDS011;52063;45.110;9.870;2022-10-16T06:25:22;11.93;;;8.90;;
65463;SDS011;52063;45.110;9.870;2022-10-16T06:27:48;16.43;;;9.33;;
65463;SDS011;52063;45.110;9.870;2022-10-16T06:30:13;13.60;;;9.63;;
65463;SDS011;52063;45.110;9.870;2022-10-16T06:32:38;12.70;;;9.13;;
65463;SDS011;52063;45.110;9.870;2022-10-16T06:35:04;12.20;;;9.15;;
65463;SDS011;52063;45.110;9.870;2022-10-16T06:37:29;13.63;;;8.87;;
65463;SDS011;52063;45.110;9.870;2022-10-16T06:39:54;13.67;;;8.83;;
65463;SDS011;52063;45.110;9.870;2022-10-16T06:42:20;13.70;;;8.90;;
65463;SDS011;52063;45.110;9.870;2022-10-16T06:44:45;12.63;;;8.70;;
65463;SDS011;52063;45.110;9.870;2022-10-16T06:47:11;11.40;;;8.20;;
65463;SDS011;52063;45.110;9.870;2022-10-16T06:49:36;12.90;;;8.27;;
65463;SDS011;52063;45.110;9.870;2022-10-16T06:52:01;15.53;;;9.13;;
65463;SDS011;52063;45.110;9.870;2022-10-16T06:54:27;11.87;;;8.60;;
65463;SDS011;52063;45.110;9.870;2022-10-16T06:56:52;12.90;;;8.45;;
65463;SDS011;52063;45.110;9.870;2022-10-16T06:59:19;11.37;;;8.93;;
65463;SDS011;52063;45.110;9.870;2022-10-16T07:01:45;12.57;;;8.52;;
65463;SDS011;52063;45.110;9.870;2022-10-16T07:04:10;14.13;;;8.90;;
65463;SDS011;52063;45.110;9.870;2022-10-16T07:06:35;11.87;;;8.63;;
65463;SDS011;52063;45.110;9.870;2022-10-16T07:09:02;11.27;;;8.37;;
65463;SDS011;52063;45.110;9.870;2022-10-16T07:11:28;11.80;;;8.82;;
65463;SDS011;52063;45.110;9.870;2022-10-16T07:13:53;13.83;;;8.77;;
65463;SDS011;52063;45.110;9.870;2022-10-16T07:16:20;11.43;;;8.90;;
65463;SDS011;52063;45.110;9.870;2022-10-16T07:18:45;13.70;;;8.48;;
65463;SDS011;52063;45.110;9.870;2022-10-16T07:21:14;12.20;;;8.70;;
65463;SDS011;52063;45.110;9.870;2022-10-16T07:23:40;12.40;;;8.80;;
65463;SDS011;52063;45.110;9.870;2022-10-16T07:26:05;10.87;;;7.77;;
65463;SDS011;52063;45.110;9.870;2022-10-16T07:28:31;12.18;;;8.90;;
65463;SDS011;52063;45.110;9.870;2022-10-16T07:31:04;10.95;;;7.85;;
65463;SDS011;52063;45.110;9.870;2022-10-16T07:33:30;12.63;;;8.50;;
65463;SDS011;52063;45.110;9.870;2022-10-16T07:35:55;12.00;;;8.60;;
65463;SDS011;52063;45.110;9.870;2022-10-16T07:38:21;11.90;;;8.47;;
65463;SDS011;52063;45.110;9.870;2022-10-16T07:40:46;10.63;;;8.43;;
65463;SDS011;52063;45.110;9.870;2022-10-16T07:43:12;12.27;;;8.53;;
65463;SDS011;52063;45.110;9.870;2022-10-16T07:45:40;12.45;;;8.60;;
65463;SDS011;52063;45.110;9.870;2022-10-16T07:48:11;11.85;;;8.45;;
65463;SDS011;52063;45.110;9.870;2022-10-16T07:50:36;13.70;;;8.83;;
65463;SDS011;52063;45.110;9.870;2022-10-16T07:53:01;11.17;;;8.43;;
65463;SDS011;52063;45.110;9.870;2022-10-16T07:55:26;12.67;;;7.97;;
65463;SDS011;52063;45.110;9.870;2022-10-16T07:57:52;12.13;;;8.30;;
65463;SDS011;52063;45.110;9.870;2022-10-16T08:00:17;11.13;;;8.20;;
65463;SDS011;52063;45.110;9.870;2022-10-16T08:02:42;12.15;;;8.70;;
65463;SDS011;52063;45.110;9.870;2022-10-16T08:05:08;11.87;;;8.30;;
65463;SDS011;52063;45.110;9.870;2022-10-16T08:07:33;12.90;;;8.87;;
65463;SDS011;52063;45.110;9.870;2022-10-16T08:09:58;11.33;;;8.37;;
65463;SDS011;52063;45.110;9.870;2022-10-16T08:12:24;12.17;;;8.23;;
65463;SDS011;52063;45.110;9.870;2022-10-16T08:14:50;12.00;;;8.55;;
65463;SDS011;52063;45.110;9.870;2022-10-16T08:17:15;10.80;;;8.37;;
65463;SDS011;52063;45.110;9.870;2022-10-16T08:19:43;12.37;;;8.77;;
65463;SDS011;52063;45.110;9.870;2022-10-16T08:22:09;11.52;;;8.73;;
65463;SDS011;52063;45.110;9.870;2022-10-16T08:24:34;9.50;;;7.87;;
65463;SDS011;52063;45.110;9.870;2022-10-16T08:26:59;11.03;;;8.00;;
65463;SDS011;52063;45.110;9.870;2022-10-16T08:29:25;10.60;;;8.27;;
65463;SDS011;52063;45.110;9.870;2022-10-16T08:31:50;10.20;;;8.07;;
65463;SDS011;52063;45.110;9.870;2022-10-16T08:34:15;10.23;;;7.90;;
65463;SDS011;52063;45.110;9.870;2022-10-16T08:36:41;10.03;;;7.90;;
65463;SDS011;52063;45.110;9.870;2022-10-16T08:39:06;12.13;;;8.20;;
65463;SDS011;52063;45.110;9.870;2022-10-16T08:46:47;10.53;;;7.63;;
65463;SDS011;52063;45.110;9.870;2022-10-16T08:49:16;9.83;;;7.63;;
65463;SDS011;52063;45.110;9.870;2022-10-16T08:51:41;10.32;;;7.90;;
65463;SDS011;52063;45.110;9.870;2022-10-16T08:56:45;11.20;;;8.03;;
65463;SDS011;52063;45.110;9.870;2022-10-16T08:59:10;10.55;;;7.90;;
65463;SDS011;52063;45.110;9.870;2022-10-16T09:01:46;9.57;;;7.37;;
65463;SDS011;52063;45.110;9.870;2022-10-16T09:11:56;10.18;;;8.02;;
65463;SDS011;52063;45.110;9.870;2022-10-16T09:19:41;8.70;;;7.80;;
65463;SDS011;52063;45.110;9.870;2022-10-16T09:22:10;11.55;;;8.57;;
65463;SDS011;52063;45.110;9.870;2022-10-16T09:24:37;10.18;;;8.32;;
65463;SDS011;52063;45.110;9.870;2022-10-16T09:27:02;9.13;;;7.47;;
65463;SDS011;52063;45.110;9.870;2022-10-16T09:29:27;10.77;;;7.53;;
65463;SDS011;52063;45.110;9.870;2022-10-16T09:31:53;10.07;;;7.87;;
65463;SDS011;52063;45.110;9.870;2022-10-16T09:34:39;10.05;;;7.60;;
65463;SDS011;52063;45.110;9.870;2022-10-16T09:37:09;9.95;;;8.07;;
65463;SDS011;52063;45.110;9.870;2022-10-16T09:39:51;13.32;;;8.45;;
65463;SDS011;52063;45.110;9.870;2022-10-16T09:42:24;11.55;;;8.30;;
65463;SDS011;52063;45.110;9.870;2022-10-16T09:44:52;13.00;;;8.60;;
65463;SDS011;52063;45.110;9.870;2022-10-16T09:47:19;9.27;;;7.85;;
65463;SDS011;52063;45.110;9.870;2022-10-16T09:49:56;11.02;;;8.60;;
65463;SDS011;52063;45.110;9.870;2022-10-16T09:52:23;10.93;;;8.50;;
65463;SDS011;52063;45.110;9.870;2022-10-16T09:54:52;9.33;;;7.90;;
65463;SDS011;52063;45.110;9.870;2022-10-16T09:57:18;12.37;;;8.77;;
65463;SDS011;52063;45.110;9.870;2022-10-16T09:59:51;11.13;;;8.45;;
65463;SDS011;52063;45.110;9.870;2022-10-16T10:02:17;10.05;;;8.30;;
65463;SDS011;52063;45.110;9.870;2022-10-16T10:04:50;10.75;;;8.15;;
65463;SDS011;52063;45.110;9.870;2022-10-16T10:07:26;9.63;;;8.13;;
65463;SDS011;52063;45.110;9.870;2022-10-16T10:09:52;9.73;;;8.23;;
65463;SDS011;52063;45.110;9.870;2022-10-16T10:12:19;11.15;;;8.63;;
65463;SDS011;52063;45.110;9.870;2022-10-16T10:14:55;12.35;;;8.63;;
65463;SDS011;52063;45.110;9.870;2022-10-16T10:17:25;10.77;;;8.35;;
65463;SDS011;52063;45.110;9.870;2022-10-16T10:19:52;13.53;;;8.43;;
65463;SDS011;52063;45.110;9.870;2022-10-16T10:30:26;11.50;;;8.85;;
65463;SDS011;52063;45.110;9.870;2022-10-16T10:35:39;12.55;;;7.85;;
65463;SDS011;52063;45.110;9.870;2022-10-16T10:43:55;10.05;;;7.95;;
65463;SDS011;52063;45.110;9.870;2022-10-16T10:46:02;10.23;;;8.25;;
65463;SDS011;52063;45.110;9.870;2022-10-16T10:48:38;9.32;;;7.95;;
65463;SDS011;52063;45.110;9.870;2022-10-16T10:51:11;9.97;;;8.50;;
65463;SDS011;52063;45.110;9.870;2022-10-16T10:53:40;11.82;;;8.23;;
65463;SDS011;52063;45.110;9.870;2022-10-16T11:01:13;10.50;;;8.40;;
65463;SDS011;52063;45.110;9.870;2022-10-16T11:08:36;9.30;;;7.33;;
65463;SDS011;52063;45.110;9.870;2022-10-16T11:11:05;9.65;;;8.20;;
65463;SDS011;52063;45.110;9.870;2022-10-16T11:13:43;12.52;;;8.32;;
65463;SDS011;52063;45.110;9.870;2022-10-16T11:16:13;9.60;;;8.50;;
65463;SDS011;52063;45.110;9.870;2022-10-16T11:18:49;10.73;;;7.97;;
65463;SDS011;52063;45.110;9.870;2022-10-16T11:21:16;10.63;;;8.02;;
65463;SDS011;52063;45.110;9.870;2022-10-16T11:26:41;38.20;;;22.27;;
65463;SDS011;52063;45.110;9.870;2022-10-16T11:28:59;40.97;;;24.23;;
65463;SDS011;52063;45.110;9.870;2022-10-16T11:31:42;47.13;;;26.13;;
65463;SDS011;52063;45.110;9.870;2022-10-16T11:34:12;44.60;;;27.43;;
65463;SDS011;52063;45.110;9.870;2022-10-16T11:36:44;49.83;;;31.33;;
65463;SDS011;52063;45.110;9.870;2022-10-16T11:39:21;53.60;;;31.52;;
65463;SDS011;52063;45.110;9.870;2022-10-16T11:41:53;50.35;;;31.58;;
65463;SDS011;52063;45.110;9.870;2022-10-16T11:47:01;58.87;;;33.30;;
65463;SDS011;52063;45.110;9.870;2022-10-16T11:49:30;52.80;;;30.77;;
65463;SDS011;52063;45.110;9.870;2022-10-16T11:51:59;55.25;;;32.95;;
65463;SDS011;52063;45.110;9.870;2022-10-16T11:54:28;53.35;;;32.35;;
65463;SDS011;52063;45.110;9.870;2022-10-16T11:56:57;57.45;;;34.03;;
65463;SDS011;52063;45.110;9.870;2022-10-16T11:59:27;61.27;;;34.07;;
65463;SDS011;52063;45.110;9.870;2022-10-16T12:06:51;54.40;;;32.50;;
65463;SDS011;52063;45.110;9.870;2022-10-16T12:11:42;53.40;;;32.23;;
65463;SDS011;52063;45.110;9.870;2022-10-16T12:16:55;54.78;;;30.48;;
65463;SDS011;52063;45.110;9.870;2022-10-16T12:19:21;52.88;;;32.17;;
65463;SDS011;52063;45.110;9.870;2022-10-16T12:21:47;52.78;;;30.25;;
65463;SDS011;52063;45.110;9.870;2022-10-16T12:26:57;50.40;;;28.97;;
65463;SDS011;52063;45.110;9.870;2022-10-16T12:31:51;50.25;;;27.85;;
65463;SDS011;52063;45.110;9.870;2022-10-16T12:34:59;50.10;;;28.37;;
65463;SDS011;52063;45.110;9.870;2022-10-16T12:37:10;45.33;;;26.92;;
65463;SDS011;52063;45.110;9.870;2022-10-16T12:39:36;43.88;;;26.27;;
65463;SDS011;52063;45.110;9.870;2022-10-16T12:42:03;44.00;;;26.17;;
65463;SDS011;52063;45.110;9.870;2022-10-16T12:44:31;48.03;;;26.03;;
65463;SDS011;52063;45.110;9.870;2022-10-16T12:46:57;39.53;;;25.27;;
65463;SDS011;52063;45.110;9.870;2022-10-16T12:49:29;40.23;;;25.47;;
65463;SDS011;52063;45.110;9.870;2022-10-16T12:51:54;43.15;;;25.10;;
65463;SDS011;52063;45.110;9.870;2022-10-16T12:54:22;42.07;;;24.60;;
65463;SDS011;52063;45.110;9.870;2022-10-16T13:17:08;31.88;;;20.77;;
65463;SDS011;52063;45.110;9.870;2022-10-16T13:22:15;38.00;;;20.83;;
65463;SDS011;52063;45.110;9.870;2022-10-16T13:24:48;34.42;;;21.25;;
65463;SDS011;52063;45.110;9.870;2022-10-16T13:30:00;38.80;;;20.67;;
65463;SDS011;52063;45.110;9.870;2022-10-16T13:32:26;32.13;;;20.48;;
65463;SDS011;52063;45.110;9.870;2022-10-16T13:34:52;34.00;;;20.75;;
65463;SDS011;52063;45.110;9.870;2022-10-16T13:37:20;35.20;;;20.05;;
65463;SDS011;52063;45.110;9.870;2022-10-16T13:39:45;37.43;;;19.90;;
65463;SDS011;52063;45.110;9.870;2022-10-16T13:42:29;34.03;;;19.15;;
65463;SDS011;52063;45.110;9.870;2022-10-16T13:44:55;31.92;;;18.60;;
65463;SDS011;52063;45.110;9.870;2022-10-16T13:47:29;33.33;;;18.53;;
65463;SDS011;52063;45.110;9.870;2022-10-16T13:50:37;30.77;;;17.50;;
65463;SDS011;52063;45.110;9.870;2022-10-16T13:52:44;30.50;;;18.50;;
65463;SDS011;52063;45.110;9.870;2022-10-16T13:55:12;28.67;;;16.70;;
65463;SDS011;52063;45.110;9.870;2022-10-16T13:57:38;25.95;;;17.35;;
65463;SDS011;52063;45.110;9.870;2022-10-16T14:00:20;23.95;;;16.40;;
65463;SDS011;52063;45.110;9.870;2022-10-16T14:02:45;26.87;;;16.80;;
65463;SDS011;52063;45.110;9.870;2022-10-16T14:05:15;24.50;;;15.88;;
65463;SDS011;52063;45.110;9.870;2022-10-16T14:07:41;24.90;;;15.67;;
65463;SDS011;52063;45.110;9.870;2022-10-16T14:10:16;26.67;;;15.43;;
65463;SDS011;52063;45.110;9.870;2022-10-16T14:12:44;26.73;;;15.98;;
65463;SDS011;52063;45.110;9.870;2022-10-16T14:15:16;23.77;;;15.77;;
65463;SDS011;52063;45.110;9.870;2022-10-16T14:17:43;27.52;;;14.90;;
65463;SDS011;52063;45.110;9.870;2022-10-16T14:20:12;24.15;;;15.13;;
65463;SDS011;52063;45.110;9.870;2022-10-16T14:22:42;24.08;;;14.77;;
65463;SDS011;52063;45.110;9.870;2022-10-16T14:27:55;20.03;;;13.00;;
65463;SDS011;52063;45.110;9.870;2022-10-16T14:30:21;22.05;;;13.70;;
65463;SDS011;52063;45.110;9.870;2022-10-16T14:32:57;21.02;;;13.38;;
65463;SDS011;52063;45.110;9.870;2022-10-16T14:35:24;21.33;;;12.30;;
65463;SDS011;52063;45.110;9.870;2022-10-16T14:37:54;18.47;;;12.20;;
65463;SDS011;52063;45.110;9.870;2022-10-16T14:40:20;14.35;;;10.45;;
65463;SDS011;52063;45.110;9.870;2022-10-16T14:42:47;21.13;;;10.85;;
65463;SDS011;52063;45.110;9.870;2022-10-16T14:45:13;16.63;;;10.27;;
65463;SDS011;52063;45.110;9.870;2022-10-16T14:47:46;14.77;;;10.55;;
65463;SDS011;52063;45.110;9.870;2022-10-16T14:50:13;15.82;;;11.05;;
65463;SDS011;52063;45.110;9.870;2022-10-16T14:52:38;18.87;;;11.00;;
65463;SDS011;52063;45.110;9.870;2022-10-16T14:55:03;15.40;;;10.23;;
65463;SDS011;52063;45.110;9.870;2022-10-16T14:57:30;15.57;;;10.40;;
65463;SDS011;52063;45.110;9.870;2022-10-16T14:59:56;14.63;;;10.57;;
65463;SDS011;52063;45.110;9.870;2022-10-16T15:02:27;19.00;;;11.38;;
65463;SDS011;52063;45.110;9.870;2022-10-16T15:04:53;17.23;;;11.17;;
65463;SDS011;52063;45.110;9.870;2022-10-16T15:07:18;17.85;;;11.18;;
65463;SDS011;52063;45.110;9.870;2022-10-16T15:09:43;19.77;;;12.97;;
65463;SDS011;52063;45.110;9.870;2022-10-16T15:12:09;21.43;;;12.30;;
65463;SDS011;52063;45.110;9.870;2022-10-16T15:14:34;23.10;;;15.03;;
65463;SDS011;52063;45.110;9.870;2022-10-16T15:16:59;26.97;;;16.73;;
65463;SDS011;52063;45.110;9.870;2022-10-16T15:19:25;36.78;;;18.33;;
65463;SDS011;52063;45.110;9.870;2022-10-16T15:21:50;33.03;;;18.30;;
65463;SDS011;52063;45.110;9.870;2022-10-16T15:24:16;31.13;;;17.30;;
65463;SDS011;52063;45.110;9.870;2022-10-16T15:26:41;32.08;;;17.02;;
65463;SDS011;52063;45.110;9.870;2022-10-16T15:29:07;29.20;;;17.03;;
65463;SDS011;52063;45.110;9.870;2022-10-16T15:31:33;29.20;;;16.70;;
65463;SDS011;52063;45.110;9.870;2022-10-16T15:33:58;26.23;;;16.58;;
65463;SDS011;52063;45.110;9.870;2022-10-16T15:36:30;31.23;;;16.20;;
65463;SDS011;52063;45.110;9.870;2022-10-16T15:38:55;24.57;;;15.57;;
65463;SDS011;52063;45.110;9.870;2022-10-16T15:41:21;27.55;;;16.83;;
65463;SDS011;52063;45.110;9.870;2022-10-16T15:43:48;22.80;;;14.43;;
65463;SDS011;52063;45.110;9.870;2022-10-16T15:46:14;27.52;;;15.15;;
65463;SDS011;52063;45.110;9.870;2022-10-16T15:48:39;22.83;;;14.30;;
65463;SDS011;52063;45.110;9.870;2022-10-16T15:51:05;27.20;;;14.23;;
65463;SDS011;52063;45.110;9.870;2022-10-16T15:53:31;22.90;;;14.27;;
65463;SDS011;52063;45.110;9.870;2022-10-16T15:55:56;23.93;;;14.57;;
65463;SDS011;52063;45.110;9.870;2022-10-16T15:58:22;24.88;;;14.05;;
65463;SDS011;52063;45.110;9.870;2022-10-16T16:00:54;21.07;;;13.57;;
65463;SDS011;52063;45.110;9.870;2022-10-16T16:03:20;22.10;;;13.20;;
65463;SDS011;52063;45.110;9.870;2022-10-16T16:05:45;28.10;;;13.40;;
65463;SDS011;52063;45.110;9.870;2022-10-16T16:08:10;22.40;;;13.40;;
65463;SDS011;52063;45.110;9.870;2022-10-16T16:10:35;24.47;;;12.83;;
65463;SDS011;52063;45.110;9.870;2022-10-16T16:13:01;19.47;;;12.97;;
65463;SDS011;52063;45.110;9.870;2022-10-16T16:15:26;20.10;;;12.65;;
65463;SDS011;52063;45.110;9.870;2022-10-16T16:17:51;18.13;;;11.93;;
65463;SDS011;52063;45.110;9.870;2022-10-16T16:20:17;16.77;;;11.07;;
65463;SDS011;52063;45.110;9.870;2022-10-16T16:22:42;22.33;;;12.13;;
65463;SDS011;52063;45.110;9.870;2022-10-16T16:25:07;17.13;;;11.53;;
65463;SDS011;52063;45.110;9.870;2022-10-16T16:27:33;20.65;;;11.30;;
65463;SDS011;52063;45.110;9.870;2022-10-16T16:30:00;17.40;;;11.50;;